createdAt,value
2022-08-17T00:00:49.460Z,66.18
2022-08-17T00:02:47.314Z,66.08
2022-08-17T00:04:50.445Z,65.92
2022-08-17T00:06:44.149Z,65.72
2022-08-17T00:22:56.067Z,64.83
2022-08-17T00:26:34.573Z,64.53
2022-08-17T00:27:51.167Z,64.33
2022-08-17T00:36:07.471Z,63.64
2022-08-17T00:37:36.431Z,63.83
2022-08-17T00:40:03.556Z,63.64
2022-08-17T00:45:24.706Z,63.64
2022-08-17T00:48:29.075Z,63.73
2022-08-17T00:49:50.738Z,63.93
2022-08-17T00:51:19.682Z,64.53
2022-08-17T00:53:18.002Z,65.32
2022-08-17T00:54:47.319Z,66.22
2022-08-17T00:57:15.342Z,66.91
2022-08-17T00:59:41.665Z,68.33
2022-08-17T01:01:39.737Z,68.93
2022-08-17T01:04:35.712Z,71.11
2022-08-17T01:06:33.735Z,73.00
2022-08-17T01:08:02.683Z,73.40
2022-08-17T01:11:01.791Z,74.52
2022-08-17T01:18:15.836Z,75.22
2022-08-17T01:24:06.002Z,75.52
2022-08-17T01:27:02.115Z,75.65
2022-08-17T01:32:52.293Z,75.46
2022-08-17T01:34:21.286Z,75.65
2022-08-17T01:36:19.727Z,75.95
2022-08-17T01:41:41.188Z,75.95
2022-08-17T01:45:35.340Z,76.35
2022-08-17T01:50:28.635Z,76.25
2022-08-17T02:05:01.304Z,75.85
2022-08-17T02:07:28.440Z,75.95
2022-08-17T02:09:55.848Z,75.65
2022-08-17T02:11:54.174Z,75.69
2022-08-17T02:14:26.793Z,75.59
2022-08-17T02:16:24.516Z,75.40
2022-08-17T02:22:14.903Z,75.29
2022-08-17T02:23:43.894Z,75.10
2022-08-17T02:25:41.984Z,75.20
2022-08-17T02:28:09.086Z,74.90
2022-08-17T02:35:56.465Z,75.03
2022-08-17T02:47:35.125Z,75.03
2022-08-17T02:54:39.984Z,75.13
2022-08-17T03:01:42.347Z,74.93
2022-08-17T03:04:09.359Z,74.63
2022-08-17T03:06:07.406Z,74.54
2022-08-17T03:09:43.403Z,74.24
2022-08-17T03:11:12.463Z,74.13
2022-08-17T03:19:29.615Z,74.67
2022-08-17T03:21:56.673Z,74.77
2022-08-17T03:23:55.335Z,74.57
2022-08-17T03:25:53.426Z,75.07
2022-08-17T03:27:21.753Z,74.97
2022-08-17T03:28:50.725Z,75.07
2022-08-17T03:30:21.195Z,74.97
2022-08-17T03:33:45.250Z,75.16
2022-08-17T03:35:13.900Z,74.97
2022-08-17T03:37:11.941Z,75.07
2022-08-17T03:41:34.972Z,75.07
2022-08-17T03:43:03.985Z,75.07
2022-08-17T03:45:02.559Z,74.97
2022-08-17T03:47:01.097Z,74.77
2022-08-17T03:48:59.130Z,74.97
2022-08-17T03:52:24.163Z,74.87
2022-08-17T03:59:22.255Z,74.97
2022-08-17T04:01:12.680Z,74.67
2022-08-17T04:04:08.743Z,74.87
2022-08-17T04:12:24.294Z,74.67
2022-08-17T04:14:52.945Z,74.37
2022-08-17T04:16:49.294Z,74.37
2022-08-17T04:25:04.781Z,74.60
2022-08-17T04:28:01.232Z,74.60
2022-08-17T04:30:28.421Z,74.60
2022-08-17T04:31:57.699Z,74.60
2022-08-17T04:33:55.696Z,74.60
2022-08-17T04:35:53.677Z,74.51
2022-08-17T04:39:47.771Z,75.01
2022-08-17T04:47:05.387Z,74.80
2022-08-17T04:50:59.621Z,74.80
2022-08-17T05:00:42.614Z,74.71
2022-08-17T05:05:34.795Z,74.60
2022-08-17T05:08:01.900Z,74.51
2022-08-17T05:09:31.190Z,74.51
2022-08-17T05:12:27.325Z,74.60
2022-08-17T05:14:32.930Z,74.80
2022-08-17T05:15:55.346Z,74.71
2022-08-17T05:17:24.332Z,74.71
2022-08-17T05:22:45.704Z,74.71
2022-08-17T05:25:41.882Z,74.41
2022-08-17T05:28:37.933Z,74.71
2022-08-17T05:33:01.211Z,74.71
2022-08-17T05:34:30.203Z,74.41
2022-08-17T05:37:26.179Z,74.41
2022-08-17T05:39:53.172Z,74.60
2022-08-17T05:41:51.123Z,74.71
2022-08-17T05:44:18.186Z,74.90
2022-08-17T05:46:45.198Z,74.60
2022-08-17T05:48:43.262Z,74.80
2022-08-17T05:50:41.586Z,74.60
2022-08-17T05:52:10.579Z,74.71
2022-08-17T05:54:37.667Z,74.71
2022-08-17T05:57:33.747Z,74.51
2022-08-17T05:59:03.010Z,74.41
2022-08-17T06:00:32.060Z,74.30
2022-08-17T06:02:01.015Z,74.21
2022-08-17T06:05:55.171Z,74.41
2022-08-17T06:09:49.293Z,73.61
2022-08-17T06:11:19.995Z,73.71
2022-08-17T06:12:47.236Z,73.71
2022-08-17T06:14:16.208Z,73.51
2022-08-17T06:15:45.194Z,73.51
2022-08-17T06:17:14.126Z,73.51
2022-08-17T06:18:43.144Z,73.51
2022-08-17T06:20:12.133Z,73.61
2022-08-17T06:22:10.990Z,74.01
2022-08-17T06:23:39.122Z,73.71
2022-08-17T06:25:10.286Z,73.77
2022-08-17T06:27:06.141Z,73.87
2022-08-17T06:29:04.165Z,73.71
2022-08-17T06:32:58.304Z,73.87
2022-08-17T06:35:28.894Z,73.38
2022-08-17T06:38:37.724Z,72.78
2022-08-17T06:39:52.717Z,72.55
2022-08-17T06:43:06.680Z,72.25
2022-08-17T06:48:40.532Z,71.81
2022-08-17T06:51:07.606Z,71.91
2022-08-17T06:52:45.471Z,72.01
2022-08-17T06:54:06.600Z,71.61
2022-08-17T06:56:52.931Z,71.48
2022-08-17T06:59:54.198Z,71.08
2022-08-17T07:01:59.256Z,70.39
2022-08-17T07:08:48.083Z,70.06
2022-08-17T07:10:17.073Z,70.36
2022-08-17T07:14:40.406Z,69.76
2022-08-17T07:16:38.466Z,69.66
2022-08-17T07:18:07.493Z,69.96
2022-08-17T07:20:05.514Z,70.06
2022-08-17T07:27:52.155Z,69.53
2022-08-17T07:29:20.937Z,69.62
2022-08-17T07:33:16.317Z,69.32
2022-08-17T07:40:16.065Z,68.83
2022-08-17T07:43:34.689Z,69.53
2022-08-17T07:45:03.704Z,69.32
2022-08-17T07:46:32.740Z,69.82
2022-08-17T07:50:04.391Z,70.12
2022-08-17T07:51:31.820Z,69.43
2022-08-17T07:53:29.923Z,69.53
2022-08-17T07:59:49.875Z,69.53
2022-08-17T08:01:48.002Z,69.23
2022-08-17T08:05:14.077Z,70.02
2022-08-17T08:06:44.060Z,69.53
2022-08-17T08:09:11.272Z,69.43
2022-08-17T08:10:45.035Z,70.81
2022-08-17T08:14:06.461Z,70.32
2022-08-17T08:16:33.543Z,70.02
2022-08-17T08:27:44.164Z,68.70
2022-08-17T08:31:09.295Z,68.70
2022-08-17T08:32:38.358Z,68.40
2022-08-17T08:35:34.453Z,68.50
2022-08-17T08:37:17.635Z,68.46
2022-08-17T08:39:02.879Z,68.46
2022-08-17T08:41:29.926Z,68.07
2022-08-17T08:42:58.937Z,68.17
2022-08-17T08:45:26.026Z,68.46
2022-08-17T08:50:31.801Z,68.17
2022-08-17T09:00:23.456Z,68.86
2022-08-17T09:02:50.454Z,68.46
2022-08-17T09:04:24.573Z,68.27
2022-08-17T09:07:45.663Z,68.13
2022-08-17T09:10:12.816Z,68.13
2022-08-17T09:12:10.786Z,69.23
2022-08-17T09:15:36.089Z,68.93
2022-08-17T09:19:01.293Z,68.63
2022-08-17T09:20:02.296Z,68.63
2022-08-17T09:23:56.617Z,68.53
2022-08-17T09:26:52.783Z,68.43
2022-08-17T09:28:51.237Z,69.13
2022-08-17T09:30:20.310Z,69.53
2022-08-17T09:31:49.701Z,69.03
2022-08-17T09:34:16.518Z,69.72
2022-08-17T09:36:43.604Z,68.53
2022-08-17T09:39:39.779Z,68.01
2022-08-17T09:41:08.692Z,68.60
2022-08-17T09:42:37.721Z,68.20
2022-08-17T09:44:35.902Z,67.50
2022-08-17T09:47:32.165Z,68.20
2022-08-17T09:49:30.248Z,67.80
2022-08-17T09:51:04.882Z,68.30
2022-08-17T09:54:41.494Z,68.80
2022-08-17T09:56:24.740Z,68.07
2022-08-17T09:57:53.624Z,66.58
2022-08-17T10:00:20.933Z,66.68
2022-08-17T10:01:49.952Z,66.78
2022-08-17T10:03:19.114Z,67.18
2022-08-17T10:08:40.703Z,66.88
2022-08-17T10:10:14.062Z,67.08
2022-08-17T10:13:35.540Z,66.88
2022-08-17T10:15:33.298Z,65.89
2022-08-17T10:19:57.493Z,65.99
2022-08-17T10:21:27.217Z,65.59
2022-08-17T10:24:13.504Z,66.28
2022-08-17T10:27:39.003Z,67.47
2022-08-17T10:30:35.441Z,66.58
2022-08-17T10:40:49.854Z,66.58
2022-08-17T10:44:38.799Z,67.77
2022-08-17T10:45:45.384Z,67.77
2022-08-17T10:47:55.134Z,67.38
2022-08-17T10:49:13.414Z,66.78
2022-08-17T10:51:11.429Z,66.78
2022-08-17T10:52:40.436Z,67.08
2022-08-17T10:55:36.611Z,67.18
2022-08-17T10:57:05.633Z,67.38
2022-08-17T10:58:34.592Z,67.38
2022-08-17T11:00:03.602Z,67.28
2022-08-17T11:04:56.193Z,67.08
2022-08-17T11:07:23.195Z,66.68
2022-08-17T11:08:52.174Z,66.19
2022-08-17T11:10:21.201Z,66.75
2022-08-17T11:11:50.132Z,66.75
2022-08-17T11:13:48.670Z,66.95
2022-08-17T11:15:47.659Z,66.55
2022-08-17T11:17:15.799Z,66.46
2022-08-17T11:21:39.677Z,65.56
2022-08-17T11:23:09.037Z,65.76
2022-08-17T11:25:07.515Z,67.44
2022-08-17T11:27:35.482Z,67.14
2022-08-17T11:29:03.768Z,67.05
2022-08-17T11:31:01.805Z,66.75
2022-08-17T11:33:29.195Z,66.55
2022-08-17T11:35:27.307Z,67.35
2022-08-17T11:37:25.488Z,67.05
2022-08-17T11:39:53.526Z,66.35
2022-08-17T11:41:51.563Z,65.95
2022-08-17T11:44:18.855Z,65.86
2022-08-17T11:47:15.023Z,66.06
2022-08-17T11:49:13.079Z,67.05
2022-08-17T11:51:11.521Z,67.44
2022-08-17T11:52:40.790Z,65.66
2022-08-17T11:54:32.167Z,65.13
2022-08-17T11:56:38.029Z,66.72
2022-08-17T12:03:28.295Z,66.22
2022-08-17T12:05:26.334Z,66.02
2022-08-17T12:08:52.208Z,67.11
2022-08-17T12:12:11.370Z,66.55
2022-08-17T12:13:18.487Z,66.42
2022-08-17T12:16:16.146Z,67.41
2022-08-17T12:18:14.204Z,66.82
2022-08-17T12:19:43.200Z,66.55
2022-08-17T12:21:41.186Z,66.75
2022-08-17T12:23:40.021Z,66.95
2022-08-17T12:25:08.996Z,67.35
2022-08-17T12:27:06.359Z,66.65
2022-08-17T12:29:38.301Z,67.44
2022-08-17T12:32:59.672Z,68.53
2022-08-17T12:36:54.314Z,67.74
2022-08-17T12:38:52.461Z,67.24
2022-08-17T12:42:17.522Z,66.65
2022-08-17T12:43:46.514Z,66.95
2022-08-17T12:46:42.625Z,65.56
2022-08-17T12:50:37.135Z,66.75
2022-08-17T12:52:06.507Z,66.55
2022-08-17T12:53:35.152Z,66.65
2022-08-17T12:56:31.393Z,67.54
2022-08-17T12:58:58.557Z,66.85
2022-08-17T13:01:26.103Z,67.05
2022-08-17T13:02:55.010Z,67.44
2022-08-17T13:04:24.424Z,68.43
2022-08-17T13:06:22.739Z,68.24
2022-08-17T13:08:20.740Z,68.33
2022-08-17T13:15:09.604Z,66.46
2022-08-17T13:18:05.830Z,66.16
2022-08-17T13:26:21.830Z,68.33
2022-08-17T13:31:14.401Z,68.83
2022-08-17T13:32:45.704Z,68.73
2022-08-17T13:34:12.405Z,68.63
2022-08-17T13:37:38.097Z,69.13
2022-08-17T13:40:45.998Z,67.08
2022-08-17T13:43:13.423Z,66.98
2022-08-17T13:44:42.638Z,67.08
2022-08-17T13:46:11.398Z,67.08
2022-08-17T13:47:40.412Z,67.28
2022-08-17T13:49:48.391Z,67.28
2022-08-17T13:53:33.984Z,67.68
2022-08-17T13:56:59.087Z,67.87
2022-08-17T13:58:57.951Z,68.07
2022-08-17T14:01:25.156Z,67.87
2022-08-17T14:03:44.406Z,67.97
2022-08-17T14:06:11.768Z,68.10
2022-08-17T14:08:40.142Z,68.30
2022-08-17T14:10:38.006Z,68.70
2022-08-17T14:15:55.601Z,68.70
2022-08-17T14:17:00.982Z,68.70
2022-08-17T14:20:26.072Z,68.80
2022-08-17T14:25:48.608Z,69.43
2022-08-17T14:27:53.269Z,69.32
2022-08-17T14:29:45.092Z,69.32
2022-08-17T14:33:39.938Z,70.51
2022-08-17T14:36:07.164Z,71.31
2022-08-17T14:38:05.369Z,71.31
2022-08-17T14:42:58.181Z,71.91
2022-08-17T14:44:27.179Z,71.81
2022-08-17T14:46:54.372Z,72.04
2022-08-17T14:48:57.159Z,71.91
2022-08-17T14:50:43.460Z,71.94
2022-08-17T14:52:30.485Z,71.70
2022-08-17T14:53:59.539Z,72.20
2022-08-17T14:56:04.595Z,72.33
2022-08-17T14:57:56.512Z,72.33
2022-08-17T14:59:26.369Z,72.20
2022-08-17T15:01:53.331Z,71.91
2022-08-17T15:03:41.527Z,71.70
2022-08-17T15:05:10.833Z,71.81
2022-08-17T15:06:41.405Z,71.91
2022-08-17T15:08:16.309Z,71.61
2022-08-17T15:10:03.438Z,71.81
2022-08-17T15:14:14.941Z,71.67
2022-08-17T15:17:03.976Z,71.91
2022-08-17T15:21:24.679Z,71.81
2022-08-17T15:23:58.302Z,71.81
2022-08-17T15:25:27.722Z,71.81
2022-08-17T15:27:32.425Z,71.81
2022-08-17T15:35:35.437Z,72.50
2022-08-17T15:37:54.476Z,72.40
2022-08-17T15:40:11.760Z,72.50
2022-08-17T15:42:39.445Z,72.20
2022-08-17T15:44:07.779Z,72.60
2022-08-17T15:45:37.578Z,72.50
2022-08-17T15:49:25.740Z,72.30
2022-08-17T15:52:41.238Z,72.50
2022-08-17T15:54:34.585Z,72.70
2022-08-17T15:56:02.311Z,72.30
2022-08-17T16:00:12.434Z,72.80
2022-08-17T16:04:01.602Z,72.56
2022-08-17T16:06:01.935Z,72.56
2022-08-17T16:09:00.705Z,72.80
2022-08-17T16:10:51.615Z,72.60
2022-08-17T16:13:54.875Z,73.00
2022-08-17T16:17:02.090Z,73.00
2022-08-17T16:19:49.169Z,73.00
2022-08-17T16:22:59.671Z,73.59
2022-08-17T16:24:57.508Z,73.19
2022-08-17T16:29:26.506Z,73.49
2022-08-17T16:33:36.771Z,73.10
2022-08-17T16:36:57.838Z,72.80
2022-08-17T16:38:55.800Z,72.50
2022-08-17T16:41:36.174Z,72.50
2022-08-17T16:45:27.734Z,72.50
2022-08-17T16:46:56.707Z,72.70
2022-08-17T16:49:35.921Z,72.89
2022-08-17T16:53:04.222Z,73.49
2022-08-17T16:57:10.127Z,72.20
2022-08-17T17:01:04.284Z,71.51
2022-08-17T17:02:44.224Z,71.31
2022-08-17T17:06:47.732Z,71.51
2022-08-17T17:08:08.497Z,71.51
2022-08-17T17:09:57.686Z,71.31
2022-08-17T17:13:03.268Z,71.01
2022-08-17T17:16:26.569Z,70.72
2022-08-17T17:18:19.184Z,70.51
2022-08-17T17:20:42.248Z,70.22
2022-08-17T17:23:09.507Z,70.35
2022-08-17T17:26:05.855Z,70.45
2022-08-17T17:29:47.427Z,70.35
2022-08-17T17:33:28.806Z,70.55
2022-08-17T17:35:55.958Z,70.55
2022-08-17T17:37:25.009Z,70.55
2022-08-17T17:44:38.359Z,71.34
2022-08-17T17:46:25.452Z,71.44
2022-08-17T17:48:08.577Z,71.44
2022-08-17T17:52:09.201Z,71.64
2022-08-17T17:54:32.948Z,71.44
2022-08-17T17:56:02.006Z,71.74
2022-08-17T17:58:58.112Z,71.97
2022-08-17T18:01:54.522Z,72.07
2022-08-17T18:03:52.503Z,72.37
2022-08-17T18:05:50.529Z,72.57
2022-08-17T18:07:19.515Z,72.57
2022-08-17T18:13:39.326Z,72.77
2022-08-17T18:20:43.194Z,72.97
2022-08-17T18:22:27.623Z,73.16
2022-08-17T18:23:56.553Z,73.27
2022-08-17T18:25:25.565Z,73.36
2022-08-17T18:27:23.591Z,73.36
2022-08-17T18:30:49.360Z,73.36
2022-08-17T18:32:18.409Z,73.36
2022-08-17T18:36:42.654Z,73.69
2022-08-17T18:38:13.696Z,73.60
2022-08-17T18:39:41.759Z,73.69
2022-08-17T18:41:11.038Z,73.69
2022-08-17T18:42:40.061Z,73.80
2022-08-17T18:45:07.149Z,73.90
2022-08-17T18:48:33.135Z,73.90
2022-08-17T18:50:02.011Z,73.99
2022-08-17T18:51:40.779Z,74.09
2022-08-17T18:53:30.332Z,73.99
2022-08-17T18:57:24.619Z,74.09
2022-08-17T18:59:22.705Z,74.13
2022-08-17T19:01:53.330Z,74.43
2022-08-17T19:05:44.262Z,74.93
2022-08-17T19:07:42.638Z,74.93
2022-08-17T19:10:09.700Z,75.12
2022-08-17T19:11:38.719Z,74.93
2022-08-17T19:13:12.724Z,75.02
2022-08-17T19:14:37.715Z,75.22
2022-08-17T19:20:57.130Z,75.65
2022-08-17T19:24:56.112Z,75.76
2022-08-17T19:28:22.261Z,75.56
2022-08-17T19:30:16.202Z,75.65
2022-08-17T19:35:37.475Z,76.15
2022-08-17T19:40:00.736Z,76.15
2022-08-17T19:47:30.780Z,76.59
2022-08-17T19:55:06.468Z,76.79
2022-08-17T19:56:35.456Z,76.79
2022-08-17T19:58:04.527Z,76.79
2022-08-17T19:59:35.784Z,76.79
2022-08-17T20:01:02.574Z,76.79
2022-08-17T20:02:31.583Z,76.49
2022-08-17T20:06:54.969Z,76.49
2022-08-17T20:20:31.085Z,77.52
2022-08-17T20:22:58.171Z,77.32
2022-08-17T20:25:54.234Z,77.52
2022-08-17T20:29:49.040Z,77.12
2022-08-17T20:31:17.374Z,77.22
2022-08-17T20:32:46.317Z,77.22
2022-08-17T20:38:37.129Z,77.52
2022-08-17T20:42:02.871Z,77.72
2022-08-17T20:48:37.304Z,77.92
2022-08-17T20:49:52.203Z,78.06
2022-08-17T20:54:44.624Z,78.25
2022-08-17T20:57:41.177Z,78.16
2022-08-17T20:59:10.156Z,78.16
2022-08-17T21:04:02.351Z,78.25
2022-08-17T21:09:23.467Z,78.35
2022-08-17T21:14:15.734Z,78.35
2022-08-17T21:15:44.723Z,78.45
2022-08-17T21:18:40.881Z,78.35
2022-08-17T21:21:07.962Z,78.59
2022-08-17T21:22:36.943Z,78.59
2022-08-17T21:24:35.002Z,78.39
2022-08-17T21:28:00.315Z,78.69
2022-08-17T21:29:31.447Z,78.79
2022-08-17T21:34:21.498Z,78.55
2022-08-17T21:36:19.533Z,78.25
2022-08-17T21:41:41.037Z,78.75
2022-08-17T21:57:41.136Z,78.45
2022-08-17T22:02:05.293Z,78.25
2022-08-17T22:04:32.335Z,77.86
2022-08-17T22:07:28.379Z,77.95
2022-08-17T22:09:55.466Z,78.19
2022-08-17T22:16:15.421Z,78.19
2022-08-17T22:23:33.271Z,78.39
2022-08-17T22:26:00.574Z,78.29
2022-08-17T22:29:25.863Z,78.39
2022-08-17T22:33:20.602Z,78.63
2022-08-17T22:39:11.632Z,78.43
2022-08-17T22:42:37.149Z,78.53
2022-08-17T22:46:31.314Z,78.63
2022-08-17T22:48:00.321Z,78.43
2022-08-17T23:04:30.011Z,79.03
2022-08-17T23:05:59.023Z,79.13
2022-08-17T23:08:26.066Z,79.22
2022-08-17T23:12:49.965Z,79.13
2022-08-17T23:18:11.772Z,79.03
2022-08-17T23:23:33.129Z,78.63
2022-08-17T23:26:00.176Z,78.73
2022-08-17T23:29:25.297Z,78.73
2022-08-17T23:32:53.550Z,78.63
2022-08-17T23:36:16.053Z,78.53
2022-08-17T23:38:14.098Z,78.53
2022-08-17T23:40:41.542Z,78.73
2022-08-17T23:42:43.381Z,78.73
2022-08-17T23:45:08.049Z,78.83
2022-08-17T23:50:01.921Z,78.63
2022-08-17T23:51:28.916Z,78.63
2022-08-17T23:56:50.327Z,78.63
2022-08-17T23:58:19.631Z,78.53
